createdAt,value
2023-04-20T00:00:11.881Z,7.61
2023-04-20T00:01:14.912Z,7.56
2023-04-20T00:02:18.169Z,7.62
2023-04-20T00:03:21.894Z,7.61
2023-04-20T00:04:25.014Z,7.61
2023-04-20T00:05:27.922Z,7.69
2023-04-20T00:06:32.778Z,7.62
2023-04-20T00:07:36.187Z,7.64
2023-04-20T00:08:39.139Z,7.71
2023-04-20T00:09:42.093Z,7.74
2023-04-20T00:10:46.287Z,7.87
2023-04-20T00:11:49.578Z,7.94
2023-04-20T00:12:52.481Z,8.00
2023-04-20T00:13:55.514Z,7.98
2023-04-20T00:14:58.476Z,8.05
2023-04-20T00:16:01.441Z,8.10
2023-04-20T00:17:04.455Z,8.14
2023-04-20T00:18:07.578Z,8.14
2023-04-20T00:19:11.237Z,8.18
2023-04-20T00:20:15.531Z,8.20
2023-04-20T00:21:22.347Z,8.26
2023-04-20T00:22:26.567Z,8.29
2023-04-20T00:23:29.464Z,8.34
2023-04-20T00:24:32.304Z,8.43
2023-04-20T00:25:35.331Z,8.46
2023-04-20T00:26:38.419Z,8.52
2023-04-20T00:27:41.424Z,8.54
2023-04-20T00:28:44.919Z,8.57
2023-04-20T00:29:48.020Z,8.60
2023-04-20T00:30:51.019Z,8.67
2023-04-20T00:31:53.909Z,8.68
2023-04-20T00:32:56.957Z,8.73
2023-04-20T00:33:59.935Z,8.84
2023-04-20T00:35:02.704Z,8.85
2023-04-20T00:36:06.176Z,8.90
2023-04-20T00:37:09.094Z,8.92
2023-04-20T00:38:12.139Z,8.91
2023-04-20T00:39:15.938Z,8.90
2023-04-20T00:40:19.117Z,8.92
2023-04-20T00:41:22.319Z,8.99
2023-04-20T00:42:25.257Z,9.02
2023-04-20T00:43:28.544Z,9.04
2023-04-20T00:44:31.419Z,9.05
2023-04-20T00:45:34.337Z,9.16
2023-04-20T00:46:38.109Z,9.09
2023-04-20T00:47:41.113Z,9.09
2023-04-20T00:48:44.417Z,9.11
2023-04-20T00:49:47.943Z,9.08
2023-04-20T00:50:51.694Z,9.07
2023-04-20T00:51:54.530Z,9.02
2023-04-20T00:52:58.345Z,9.01
2023-04-20T00:54:02.032Z,9.03
2023-04-20T00:55:06.454Z,9.00
2023-04-20T00:56:09.925Z,8.98
2023-04-20T00:57:14.781Z,8.95
2023-04-20T00:58:17.702Z,8.98
2023-04-20T00:59:22.297Z,9.00
2023-04-20T01:00:25.937Z,9.01
2023-04-20T01:01:29.388Z,8.91
2023-04-20T01:02:32.300Z,8.93
2023-04-20T01:03:37.236Z,8.93
2023-04-20T01:04:40.810Z,8.98
2023-04-20T01:05:44.097Z,8.92
2023-04-20T01:06:46.931Z,8.97
2023-04-20T01:07:50.346Z,9.00
2023-04-20T01:08:53.234Z,9.01
2023-04-20T01:09:56.730Z,8.95
2023-04-20T01:10:59.697Z,9.05
2023-04-20T01:12:02.795Z,9.04
2023-04-20T01:13:05.695Z,9.02
2023-04-20T01:14:08.605Z,8.97
2023-04-20T01:15:12.000Z,8.93
2023-04-20T01:16:15.032Z,9.01
2023-04-20T01:17:18.157Z,9.01
2023-04-20T01:18:20.991Z,8.88
2023-04-20T01:19:24.050Z,8.84
2023-04-20T01:20:26.918Z,8.76
2023-04-20T01:21:29.772Z,8.70
2023-04-20T01:22:32.550Z,8.74
2023-04-20T01:23:35.777Z,8.82
2023-04-20T01:24:38.611Z,8.75
2023-04-20T01:25:42.113Z,8.80
2023-04-20T01:26:45.402Z,8.82
2023-04-20T01:27:48.851Z,8.87
2023-04-20T01:28:52.051Z,8.87
2023-04-20T01:29:55.814Z,8.61
2023-04-20T01:30:58.749Z,8.56
2023-04-20T01:32:02.031Z,8.61
2023-04-20T01:33:04.940Z,8.50
2023-04-20T01:34:07.891Z,8.43
2023-04-20T01:35:11.098Z,8.36
2023-04-20T01:36:14.582Z,8.34
2023-04-20T01:37:17.649Z,8.24
2023-04-20T01:38:21.812Z,8.28
2023-04-20T01:39:25.156Z,8.35
2023-04-20T01:40:28.621Z,8.23
2023-04-20T01:41:31.695Z,8.15
2023-04-20T01:42:34.542Z,8.16
2023-04-20T01:43:39.210Z,8.15
2023-04-20T01:44:42.120Z,8.15
2023-04-20T01:45:44.874Z,7.99
2023-04-20T01:46:47.950Z,7.97
2023-04-20T01:47:51.001Z,7.94
2023-04-20T01:48:53.914Z,7.89
2023-04-20T01:49:57.253Z,7.87
2023-04-20T01:51:00.317Z,7.93
2023-04-20T01:52:03.707Z,7.74
2023-04-20T01:53:06.587Z,7.75
2023-04-20T01:54:09.490Z,7.85
2023-04-20T01:55:12.276Z,7.93
2023-04-20T01:56:15.055Z,7.79
2023-04-20T01:57:17.957Z,7.78
2023-04-20T01:58:21.068Z,7.68
2023-04-20T01:59:24.180Z,7.59
2023-04-20T02:00:27.049Z,7.58
2023-04-20T02:01:30.177Z,7.62
2023-04-20T02:02:33.212Z,7.67
2023-04-20T02:03:36.288Z,7.64
2023-04-20T02:04:39.226Z,7.53
2023-04-20T02:05:42.141Z,7.32
2023-04-20T02:06:44.922Z,7.23
2023-04-20T02:07:47.902Z,7.27
2023-04-20T02:08:50.942Z,7.38
2023-04-20T02:09:53.911Z,7.29
2023-04-20T02:10:56.761Z,7.15
2023-04-20T02:11:59.713Z,7.15
2023-04-20T02:13:02.742Z,7.19
2023-04-20T02:14:05.860Z,7.27
2023-04-20T02:15:09.680Z,7.43
2023-04-20T02:16:12.969Z,7.33
2023-04-20T02:17:16.017Z,7.30
2023-04-20T02:18:18.937Z,7.35
2023-04-20T02:19:22.012Z,7.46
2023-04-20T02:20:25.045Z,7.40
2023-04-20T02:21:28.289Z,7.42
2023-04-20T02:22:35.161Z,7.40
2023-04-20T02:23:38.373Z,7.49
2023-04-20T02:24:41.702Z,7.49
2023-04-20T02:25:44.732Z,7.27
2023-04-20T02:26:47.832Z,7.19
2023-04-20T02:27:51.305Z,7.13
2023-04-20T02:28:54.304Z,7.17
2023-04-20T02:29:57.679Z,7.22
2023-04-20T02:31:00.838Z,7.30
2023-04-20T02:32:04.030Z,7.25
2023-04-20T02:33:07.114Z,7.24
2023-04-20T02:34:11.049Z,7.20
2023-04-20T02:35:14.099Z,7.18
2023-04-20T02:36:17.187Z,7.16
2023-04-20T02:37:20.102Z,7.16
2023-04-20T02:38:22.993Z,7.13
2023-04-20T02:39:26.403Z,7.06
2023-04-20T02:40:29.485Z,7.03
2023-04-20T02:41:32.463Z,7.06
2023-04-20T02:42:35.312Z,7.10
2023-04-20T02:43:38.226Z,7.00
2023-04-20T02:44:41.346Z,6.96
2023-04-20T02:45:44.433Z,6.91
2023-04-20T02:46:47.394Z,7.00
2023-04-20T02:47:50.423Z,6.94
2023-04-20T02:48:53.301Z,6.96
2023-04-20T02:49:56.371Z,7.09
2023-04-20T02:50:59.276Z,7.03
2023-04-20T02:52:02.276Z,6.94
2023-04-20T02:53:05.562Z,6.94
2023-04-20T02:54:08.326Z,6.98
2023-04-20T02:55:11.326Z,6.82
2023-04-20T02:56:14.268Z,6.89
2023-04-20T02:57:17.979Z,6.84
2023-04-20T02:58:20.990Z,6.83
2023-04-20T02:59:23.724Z,6.95
2023-04-20T03:00:26.966Z,7.02
2023-04-20T03:01:30.354Z,6.97
2023-04-20T03:02:33.322Z,6.87
2023-04-20T03:03:36.576Z,6.91
2023-04-20T03:04:39.663Z,6.99
2023-04-20T03:05:42.668Z,7.02
2023-04-20T03:06:45.641Z,6.96
2023-04-20T03:07:48.802Z,7.03
2023-04-20T03:08:52.294Z,6.99
2023-04-20T03:09:55.381Z,7.04
2023-04-20T03:10:58.284Z,7.07
2023-04-20T03:12:02.499Z,7.03
2023-04-20T03:13:05.336Z,7.09
2023-04-20T03:14:08.194Z,7.07
2023-04-20T03:15:11.522Z,7.09
2023-04-20T03:16:14.515Z,7.11
2023-04-20T03:17:17.803Z,7.17
2023-04-20T03:18:21.182Z,7.20
2023-04-20T03:19:24.439Z,7.27
2023-04-20T03:20:27.684Z,7.30
2023-04-20T03:21:31.519Z,7.23
2023-04-20T03:22:34.439Z,7.21
2023-04-20T03:23:37.299Z,7.20
2023-04-20T03:24:40.014Z,7.28
2023-04-20T03:25:43.843Z,7.29
2023-04-20T03:26:46.797Z,7.33
2023-04-20T03:27:50.032Z,7.41
2023-04-20T03:28:53.142Z,7.37
2023-04-20T03:29:56.279Z,7.37
2023-04-20T03:30:59.717Z,7.36
2023-04-20T03:32:04.183Z,7.44
2023-04-20T03:33:07.012Z,7.43
2023-04-20T03:34:09.951Z,7.34
2023-04-20T03:35:12.736Z,7.36
2023-04-20T03:36:15.696Z,7.39
2023-04-20T03:37:18.642Z,7.39
2023-04-20T03:38:21.814Z,7.42
2023-04-20T03:39:24.728Z,7.46
2023-04-20T03:40:27.637Z,7.45
2023-04-20T03:41:31.911Z,7.50
2023-04-20T03:42:34.708Z,7.40
2023-04-20T03:43:37.514Z,7.29
2023-04-20T03:44:40.390Z,7.33
2023-04-20T03:45:43.231Z,7.36
2023-04-20T03:46:46.492Z,7.33
2023-04-20T03:47:50.129Z,7.27
2023-04-20T03:48:53.152Z,7.17
2023-04-20T03:49:56.422Z,7.24
2023-04-20T03:50:59.327Z,7.29
2023-04-20T03:52:02.652Z,7.30
2023-04-20T03:53:05.470Z,7.35
2023-04-20T03:54:08.349Z,7.24
2023-04-20T03:55:11.317Z,7.13
2023-04-20T03:56:14.147Z,7.16
2023-04-20T03:57:16.993Z,7.19
2023-04-20T03:58:21.290Z,7.31
2023-04-20T03:59:24.588Z,7.28
2023-04-20T04:00:27.413Z,7.34
2023-04-20T04:01:30.358Z,7.27
2023-04-20T04:02:34.061Z,7.26
2023-04-20T04:03:37.931Z,7.18
2023-04-20T04:04:41.537Z,7.26
2023-04-20T04:05:44.334Z,7.36
2023-04-20T04:06:47.309Z,7.24
2023-04-20T04:07:50.164Z,7.26
2023-04-20T04:08:53.064Z,7.25
2023-04-20T04:09:56.010Z,7.23
2023-04-20T04:11:07.965Z,7.33
2023-04-20T04:12:11.087Z,7.39
2023-04-20T04:13:14.193Z,7.42
2023-04-20T04:14:16.947Z,7.50
2023-04-20T04:15:19.876Z,7.45
2023-04-20T04:16:22.731Z,7.43
2023-04-20T04:17:25.788Z,7.34
2023-04-20T04:18:32.735Z,7.29
2023-04-20T04:19:35.784Z,7.31
2023-04-20T04:20:39.115Z,7.33
2023-04-20T04:21:42.377Z,7.25
2023-04-20T04:22:45.248Z,7.35
2023-04-20T04:23:48.134Z,7.45
2023-04-20T04:24:51.057Z,7.41
2023-04-20T04:25:54.383Z,7.43
2023-04-20T04:26:58.737Z,7.45
2023-04-20T04:28:01.791Z,7.42
2023-04-20T04:29:07.469Z,7.34
2023-04-20T04:30:11.485Z,7.36
2023-04-20T04:31:14.709Z,7.44
2023-04-20T04:32:17.744Z,7.35
2023-04-20T04:33:20.615Z,7.35
2023-04-20T04:34:24.248Z,7.41
2023-04-20T04:35:27.114Z,7.41
2023-04-20T04:36:30.074Z,7.38
2023-04-20T04:37:33.005Z,7.33
2023-04-20T04:38:36.048Z,7.32
2023-04-20T04:39:39.115Z,7.44
2023-04-20T04:40:42.002Z,7.42
2023-04-20T04:41:45.041Z,7.37
2023-04-20T04:42:48.905Z,7.44
2023-04-20T04:43:52.604Z,7.45
2023-04-20T04:44:56.445Z,7.41
2023-04-20T04:45:59.263Z,7.43
2023-04-20T04:47:05.770Z,7.45
2023-04-20T04:48:12.550Z,7.49
2023-04-20T04:49:16.448Z,7.50
2023-04-20T04:50:19.921Z,7.60
2023-04-20T04:51:22.957Z,7.58
2023-04-20T04:52:25.984Z,7.58
2023-04-20T04:53:28.887Z,7.67
2023-04-20T04:54:31.647Z,7.68
2023-04-20T04:55:34.614Z,7.58
2023-04-20T04:56:37.864Z,7.79
2023-04-20T04:57:40.786Z,7.83
2023-04-20T04:58:43.883Z,7.72
2023-04-20T04:59:47.087Z,7.62
2023-04-20T05:00:50.336Z,7.59
2023-04-20T05:01:53.294Z,7.64
2023-04-20T05:02:57.170Z,7.74
2023-04-20T05:04:01.320Z,7.63
2023-04-20T05:05:04.797Z,7.71
2023-04-20T05:06:08.082Z,7.70
2023-04-20T05:07:10.852Z,7.75
2023-04-20T05:08:14.070Z,7.77
2023-04-20T05:09:17.280Z,7.79
2023-04-20T05:10:20.530Z,7.83
2023-04-20T05:11:23.551Z,7.93
2023-04-20T05:12:26.591Z,7.96
2023-04-20T05:13:29.433Z,7.96
2023-04-20T05:14:32.917Z,7.97
2023-04-20T05:15:35.823Z,8.01
2023-04-20T05:16:38.697Z,8.08
2023-04-20T05:17:41.666Z,8.15
2023-04-20T05:18:46.192Z,8.19
2023-04-20T05:19:49.233Z,8.21
2023-04-20T05:20:52.503Z,8.41
2023-04-20T05:21:55.247Z,8.42
2023-04-20T05:22:58.255Z,8.41
2023-04-20T05:24:01.074Z,8.46
2023-04-20T05:25:05.172Z,8.51
2023-04-20T05:26:08.068Z,8.55
2023-04-20T05:27:11.612Z,8.72
2023-04-20T05:28:14.516Z,8.81
2023-04-20T05:29:17.799Z,8.83
2023-04-20T05:30:22.238Z,8.87
2023-04-20T05:31:26.559Z,8.88
2023-04-20T05:32:29.818Z,8.93
2023-04-20T05:33:32.609Z,8.95
2023-04-20T05:34:35.591Z,9.03
2023-04-20T05:35:40.611Z,9.02
2023-04-20T05:36:43.476Z,9.08
2023-04-20T05:37:47.794Z,9.11
2023-04-20T05:38:51.028Z,9.13
2023-04-20T05:39:53.865Z,9.13
2023-04-20T05:40:56.826Z,9.22
2023-04-20T05:41:59.896Z,9.32
2023-04-20T05:43:03.073Z,9.39
2023-04-20T05:44:05.921Z,9.44
2023-04-20T05:45:09.442Z,9.56
2023-04-20T05:46:12.320Z,9.66
2023-04-20T05:47:15.172Z,9.77
2023-04-20T05:48:18.060Z,9.86
2023-04-20T05:49:20.814Z,9.89
2023-04-20T05:50:24.982Z,9.99
2023-04-20T05:51:30.761Z,10.08
2023-04-20T05:52:33.692Z,10.19
2023-04-20T05:53:37.194Z,10.36
2023-04-20T05:54:39.990Z,10.26
2023-04-20T05:55:42.856Z,10.33
2023-04-20T05:56:45.747Z,10.42
2023-04-20T05:57:48.594Z,10.48
2023-04-20T05:58:52.248Z,10.60
2023-04-20T05:59:56.365Z,10.79
2023-04-20T06:00:59.406Z,10.76
2023-04-20T06:02:02.721Z,10.87
2023-04-20T06:03:05.948Z,10.90
2023-04-20T06:04:22.884Z,10.93
2023-04-20T06:05:26.140Z,11.06
2023-04-20T06:06:29.315Z,11.12
2023-04-20T06:07:32.768Z,11.15
2023-04-20T06:08:35.676Z,11.19
2023-04-20T06:09:38.856Z,11.26
2023-04-20T06:10:41.820Z,11.54
2023-04-20T06:11:44.702Z,11.77
2023-04-20T06:12:47.952Z,11.78
2023-04-20T06:13:51.116Z,11.82
2023-04-20T06:14:54.038Z,11.83
2023-04-20T06:15:57.334Z,11.85
2023-04-20T06:17:00.245Z,11.93
2023-04-20T06:18:03.271Z,11.95
2023-04-20T06:19:06.356Z,11.99
2023-04-20T06:20:10.779Z,12.02
2023-04-20T06:21:13.717Z,12.15
2023-04-20T06:22:17.065Z,12.21
2023-04-20T06:23:19.940Z,12.29
2023-04-20T06:24:22.802Z,12.37
2023-04-20T06:25:26.146Z,12.32
2023-04-20T06:26:29.040Z,12.41
2023-04-20T06:27:32.034Z,12.55
2023-04-20T06:28:36.281Z,12.74
2023-04-20T06:29:39.274Z,12.83
2023-04-20T06:30:42.368Z,12.84
2023-04-20T06:31:45.723Z,12.94
2023-04-20T06:32:48.809Z,13.00
2023-04-20T06:33:51.586Z,13.00
2023-04-20T06:34:54.446Z,13.14
2023-04-20T06:35:57.714Z,13.37
2023-04-20T06:37:00.857Z,13.38
2023-04-20T06:38:03.911Z,13.48
2023-04-20T06:39:06.740Z,13.67
2023-04-20T06:40:10.094Z,13.60
2023-04-20T06:41:12.903Z,13.65
2023-04-20T06:42:16.328Z,13.69
2023-04-20T06:43:19.519Z,13.71
2023-04-20T06:44:22.495Z,13.74
2023-04-20T06:45:25.538Z,13.79
2023-04-20T06:46:28.487Z,13.75
2023-04-20T06:47:34.514Z,13.57
2023-04-20T06:48:37.388Z,13.54
2023-04-20T06:49:41.006Z,13.71
2023-04-20T06:50:47.106Z,13.83
2023-04-20T06:51:50.080Z,13.95
2023-04-20T06:52:53.588Z,13.99
2023-04-20T06:53:57.042Z,14.02
2023-04-20T06:55:02.978Z,14.11
2023-04-20T06:56:06.378Z,14.28
2023-04-20T06:57:09.247Z,14.41
2023-04-20T06:58:12.153Z,14.43
2023-04-20T06:59:18.447Z,14.29
2023-04-20T07:00:21.472Z,14.24
2023-04-20T07:01:24.308Z,14.25
2023-04-20T07:02:27.746Z,14.41
2023-04-20T07:03:31.224Z,14.54
2023-04-20T07:04:34.767Z,14.54
2023-04-20T07:05:38.016Z,14.59
2023-04-20T07:06:40.860Z,14.52
2023-04-20T07:07:44.587Z,14.68
2023-04-20T07:08:47.351Z,14.75
2023-04-20T07:09:50.424Z,14.75
2023-04-20T07:10:53.348Z,14.53
2023-04-20T07:11:56.723Z,14.41
2023-04-20T07:12:59.667Z,14.59
2023-04-20T07:14:02.615Z,14.80
2023-04-20T07:15:07.037Z,14.78
2023-04-20T07:16:10.826Z,14.69
2023-04-20T07:17:13.869Z,14.90
2023-04-20T07:18:16.647Z,14.98
2023-04-20T07:19:19.908Z,15.15
2023-04-20T07:20:23.319Z,15.38
2023-04-20T07:21:27.390Z,15.43
2023-04-20T07:22:30.529Z,15.55
2023-04-20T07:23:33.474Z,15.61
2023-04-20T07:24:36.486Z,15.79
2023-04-20T07:25:39.490Z,15.89
2023-04-20T07:26:42.194Z,15.91
2023-04-20T07:27:45.006Z,16.08
2023-04-20T07:28:47.878Z,15.96
2023-04-20T07:29:50.910Z,15.98
2023-04-20T07:30:53.830Z,16.16
2023-04-20T07:31:56.886Z,16.13
2023-04-20T07:33:00.336Z,16.33
2023-04-20T07:34:03.581Z,16.26
2023-04-20T07:35:06.870Z,16.46
2023-04-20T07:36:10.337Z,16.28
2023-04-20T07:37:13.256Z,16.08
2023-04-20T07:38:16.097Z,16.50
2023-04-20T07:39:19.309Z,16.51
2023-04-20T07:40:22.837Z,16.55
2023-04-20T07:41:25.761Z,16.46
2023-04-20T07:42:29.937Z,16.55
2023-04-20T07:43:32.821Z,16.56
2023-04-20T07:44:38.083Z,16.59
2023-04-20T07:45:41.948Z,16.61
2023-04-20T07:46:44.880Z,16.82
2023-04-20T07:47:51.554Z,17.13
2023-04-20T07:48:54.585Z,17.08
2023-04-20T07:49:57.859Z,17.29
2023-04-20T07:51:00.852Z,17.37
2023-04-20T07:52:14.978Z,17.45
2023-04-20T07:53:19.320Z,17.34
2023-04-20T07:54:22.152Z,17.47
2023-04-20T07:55:24.947Z,17.33
2023-04-20T07:56:27.963Z,17.48
2023-04-20T07:57:32.408Z,17.36
2023-04-20T07:58:38.640Z,17.51
2023-04-20T07:59:41.576Z,17.47
2023-04-20T08:00:47.466Z,17.10
2023-04-20T08:01:50.874Z,17.38
2023-04-20T08:02:53.779Z,17.48
2023-04-20T08:03:57.036Z,17.76
2023-04-20T08:05:02.760Z,18.00
2023-04-20T08:06:06.551Z,17.78
2023-04-20T08:07:09.486Z,17.69
2023-04-20T08:08:12.483Z,17.75
2023-04-20T08:09:15.777Z,17.90
2023-04-20T08:10:19.023Z,17.93
2023-04-20T08:11:21.883Z,17.91
2023-04-20T08:12:24.725Z,18.07
2023-04-20T08:13:31.091Z,18.01
2023-04-20T08:14:34.098Z,18.19
2023-04-20T08:15:36.968Z,17.77
2023-04-20T08:16:40.586Z,18.02
2023-04-20T08:17:43.464Z,18.19
2023-04-20T08:18:46.678Z,18.32
2023-04-20T08:19:49.514Z,17.90
2023-04-20T08:20:52.418Z,17.78
2023-04-20T08:21:55.316Z,17.96
2023-04-20T08:22:58.364Z,18.10
2023-04-20T08:24:01.427Z,18.44
2023-04-20T08:25:04.537Z,18.32
2023-04-20T08:26:07.390Z,18.44
2023-04-20T08:27:10.261Z,18.59
2023-04-20T08:28:24.243Z,18.55
2023-04-20T08:29:32.967Z,18.35
2023-04-20T08:30:35.858Z,18.87
2023-04-20T08:31:39.036Z,18.97
2023-04-20T08:32:41.905Z,19.00
2023-04-20T08:33:44.809Z,19.33
2023-04-20T08:34:47.603Z,19.35
2023-04-20T08:35:53.565Z,19.18
2023-04-20T08:36:56.515Z,19.47
2023-04-20T08:37:59.381Z,19.24
2023-04-20T08:39:13.350Z,18.96
2023-04-20T08:40:20.159Z,19.03
2023-04-20T08:41:23.061Z,19.35
2023-04-20T08:42:25.825Z,19.73
2023-04-20T08:43:28.653Z,19.96
2023-04-20T08:44:32.432Z,19.79
2023-04-20T08:45:35.367Z,19.37
2023-04-20T08:46:38.809Z,19.70
2023-04-20T08:47:42.983Z,20.06
2023-04-20T08:48:47.680Z,19.98
2023-04-20T08:49:55.103Z,19.86
2023-04-20T08:50:58.277Z,20.04
2023-04-20T08:52:01.440Z,20.27
2023-04-20T08:53:05.051Z,20.54
2023-04-20T08:54:08.215Z,20.49
2023-04-20T08:55:11.014Z,20.75
2023-04-20T08:56:13.908Z,20.77
2023-04-20T08:57:16.952Z,20.94
2023-04-20T08:58:20.463Z,20.64
2023-04-20T08:59:23.330Z,20.69
2023-04-20T09:00:26.256Z,20.81
2023-04-20T09:01:35.354Z,20.05
2023-04-20T09:02:53.188Z,20.92
2023-04-20T09:03:56.435Z,21.02
2023-04-20T09:05:06.111Z,21.07
2023-04-20T09:06:17.351Z,20.62
2023-04-20T09:07:21.812Z,19.93
2023-04-20T09:08:35.994Z,19.35
2023-04-20T09:09:39.083Z,19.80
2023-04-20T09:10:44.868Z,19.92
2023-04-20T09:12:05.371Z,19.49
2023-04-20T09:13:08.504Z,19.57
2023-04-20T09:14:14.411Z,19.87
2023-04-20T09:15:31.729Z,20.13
2023-04-20T09:16:35.942Z,20.23
2023-04-20T09:17:41.797Z,20.76
2023-04-20T09:18:53.552Z,20.95
2023-04-20T09:19:56.882Z,21.12
2023-04-20T09:21:08.843Z,21.17
2023-04-20T09:22:12.205Z,20.87
2023-04-20T09:23:17.023Z,20.72
2023-04-20T09:24:21.901Z,21.27
2023-04-20T09:25:29.103Z,20.99
2023-04-20T09:26:34.450Z,20.81
2023-04-20T09:27:37.537Z,21.05
2023-04-20T09:28:40.772Z,21.65
2023-04-20T09:29:44.138Z,21.81
2023-04-20T09:30:49.214Z,21.71
2023-04-20T09:31:52.687Z,21.28
2023-04-20T09:33:06.189Z,21.46
2023-04-20T09:34:10.074Z,21.67
2023-04-20T09:35:12.905Z,22.01
2023-04-20T09:36:17.958Z,22.06
2023-04-20T09:37:23.019Z,22.06
2023-04-20T09:38:29.900Z,22.29
2023-04-20T09:39:34.302Z,22.73
2023-04-20T09:40:38.068Z,22.30
2023-04-20T09:41:42.560Z,22.37
2023-04-20T09:42:47.146Z,21.84
2023-04-20T09:43:50.955Z,22.44
2023-04-20T09:44:54.895Z,22.36
2023-04-20T09:45:58.333Z,22.90
2023-04-20T09:47:01.562Z,23.34
2023-04-20T09:48:08.908Z,23.35
2023-04-20T09:49:14.318Z,23.29
2023-04-20T09:50:26.727Z,23.00
2023-04-20T09:51:37.612Z,23.45
2023-04-20T09:52:41.277Z,23.64
2023-04-20T09:53:46.447Z,22.81
2023-04-20T09:54:51.425Z,22.37
2023-04-20T09:55:54.340Z,22.14
2023-04-20T09:56:59.839Z,21.33
2023-04-20T09:58:04.758Z,21.09
2023-04-20T09:59:08.184Z,20.80
2023-04-20T10:00:12.894Z,20.92
2023-04-20T10:01:15.887Z,21.03
2023-04-20T10:02:18.721Z,21.13
2023-04-20T10:03:22.426Z,21.45
2023-04-20T10:04:25.651Z,22.04
2023-04-20T10:05:36.890Z,22.46
2023-04-20T10:06:40.459Z,22.54
2023-04-20T10:07:44.498Z,22.45
2023-04-20T10:08:49.339Z,22.43
2023-04-20T10:10:05.255Z,22.78
2023-04-20T10:11:08.431Z,22.67
2023-04-20T10:12:12.495Z,23.14
2023-04-20T10:13:17.138Z,23.10
2023-04-20T10:14:25.203Z,23.03
2023-04-20T10:15:41.772Z,22.28
2023-04-20T10:16:45.817Z,21.84
2023-04-20T10:17:49.304Z,22.77
2023-04-20T10:19:03.628Z,22.80
2023-04-20T10:20:21.283Z,23.17
2023-04-20T10:21:24.207Z,23.22
2023-04-20T10:22:33.911Z,23.24
2023-04-20T10:23:48.228Z,22.91
2023-04-20T10:24:50.991Z,22.82
2023-04-20T10:25:58.499Z,23.13
2023-04-20T10:27:03.050Z,22.67
2023-04-20T10:28:09.884Z,23.02
2023-04-20T10:29:27.295Z,22.86
2023-04-20T10:30:31.328Z,23.32
2023-04-20T10:31:41.911Z,23.17
2023-04-20T10:32:44.669Z,23.39
2023-04-20T10:33:55.076Z,23.54
2023-04-20T10:35:16.497Z,22.78
2023-04-20T10:36:34.098Z,20.90
2023-04-20T10:37:47.988Z,20.93
2023-04-20T10:38:52.534Z,20.93
2023-04-20T10:39:55.409Z,21.20
2023-04-20T10:41:07.227Z,21.68
2023-04-20T10:42:10.208Z,22.05
2023-04-20T10:43:22.526Z,22.40
2023-04-20T10:44:25.918Z,23.01
2023-04-20T10:45:36.840Z,23.26
2023-04-20T10:46:40.197Z,23.53
2023-04-20T10:47:44.601Z,23.91
2023-04-20T10:48:54.461Z,24.12
2023-04-20T10:50:08.232Z,23.31
2023-04-20T10:51:11.679Z,23.45
2023-04-20T10:52:14.489Z,23.02
2023-04-20T10:53:22.639Z,22.55
2023-04-20T10:54:25.690Z,22.51
2023-04-20T10:55:28.630Z,22.06
2023-04-20T10:56:57.885Z,21.40
2023-04-20T10:58:00.718Z,20.78
2023-04-20T10:59:12.308Z,20.82
2023-04-20T11:00:16.972Z,20.60
2023-04-20T11:01:19.995Z,20.52
2023-04-20T11:02:23.218Z,20.45
2023-04-20T11:03:29.097Z,20.76
2023-04-20T11:04:32.825Z,21.51
2023-04-20T11:05:36.116Z,21.05
2023-04-20T11:06:44.594Z,21.20
2023-04-20T11:07:57.350Z,22.02
2023-04-20T11:09:00.203Z,22.57
2023-04-20T11:10:04.749Z,22.97
2023-04-20T11:11:21.254Z,22.72
2023-04-20T11:12:24.186Z,22.52
2023-04-20T11:13:29.593Z,22.68
2023-04-20T11:14:38.577Z,22.30
2023-04-20T11:15:41.626Z,22.44
2023-04-20T11:16:52.787Z,22.39
2023-04-20T11:17:55.847Z,22.17
2023-04-20T11:18:59.371Z,21.77
2023-04-20T11:20:19.810Z,21.71
2023-04-20T11:21:23.033Z,22.37
2023-04-20T11:22:25.903Z,22.25
2023-04-20T11:23:38.811Z,21.52
2023-04-20T11:24:43.230Z,21.31
2023-04-20T11:25:51.519Z,21.00
2023-04-20T11:26:56.357Z,20.31
2023-04-20T11:28:07.964Z,20.02
2023-04-20T11:29:10.837Z,20.03
2023-04-20T11:30:14.413Z,19.86
2023-04-20T11:31:18.858Z,19.59
2023-04-20T11:32:21.920Z,19.42
2023-04-20T11:33:29.578Z,19.21
2023-04-20T11:34:33.856Z,18.97
2023-04-20T11:35:41.683Z,18.88
2023-04-20T11:36:44.597Z,19.24
2023-04-20T11:37:54.974Z,19.29
2023-04-20T11:39:13.173Z,19.43
2023-04-20T11:40:16.047Z,19.97
2023-04-20T11:41:19.128Z,20.33
2023-04-20T11:42:21.820Z,20.81
2023-04-20T11:43:24.702Z,21.14
2023-04-20T11:44:32.035Z,20.80
2023-04-20T11:45:36.199Z,20.75
2023-04-20T11:46:39.820Z,20.68
2023-04-20T11:47:42.741Z,20.28
2023-04-20T11:48:49.313Z,19.75
2023-04-20T11:49:52.652Z,19.43
2023-04-20T11:50:55.390Z,19.01
2023-04-20T11:51:58.323Z,19.28
2023-04-20T11:53:01.123Z,19.41
2023-04-20T11:54:04.133Z,19.19
2023-04-20T11:55:07.593Z,18.94
2023-04-20T11:56:10.664Z,18.86
2023-04-20T11:57:13.518Z,18.83
2023-04-20T11:58:16.255Z,18.55
2023-04-20T11:59:20.617Z,18.69
2023-04-20T12:00:24.194Z,18.81
2023-04-20T12:01:26.989Z,18.94
2023-04-20T12:02:30.215Z,19.01
2023-04-20T12:03:33.483Z,18.75
2023-04-20T12:04:36.698Z,18.47
2023-04-20T12:05:39.850Z,18.40
2023-04-20T12:06:42.980Z,18.27
2023-04-20T12:07:46.324Z,18.48
2023-04-20T12:08:49.286Z,19.15
2023-04-20T12:09:52.223Z,19.85
2023-04-20T12:10:56.767Z,20.39
2023-04-20T12:12:02.197Z,20.82
2023-04-20T12:13:05.100Z,21.10
2023-04-20T12:14:08.231Z,21.52
2023-04-20T12:15:11.198Z,21.79
2023-04-20T12:16:14.072Z,22.03
2023-04-20T12:17:16.822Z,22.30
2023-04-20T12:18:20.024Z,22.44
2023-04-20T12:19:22.800Z,22.71
2023-04-20T12:20:25.802Z,22.76
2023-04-20T12:21:28.798Z,22.60
2023-04-20T12:22:31.726Z,22.48
2023-04-20T12:23:37.376Z,22.31
2023-04-20T12:24:40.185Z,22.41
2023-04-20T12:25:43.399Z,22.38
2023-04-20T12:26:47.305Z,22.40
2023-04-20T12:27:50.174Z,22.68
2023-04-20T12:28:53.387Z,22.49
2023-04-20T12:29:59.823Z,22.18
2023-04-20T12:31:02.873Z,22.07
2023-04-20T12:32:05.682Z,21.46
2023-04-20T12:33:08.748Z,21.07
2023-04-20T12:34:12.013Z,21.05
2023-04-20T12:35:14.798Z,20.53
2023-04-20T12:36:17.781Z,20.66
2023-04-20T12:37:20.969Z,20.82
2023-04-20T12:38:23.971Z,20.51
2023-04-20T12:39:26.847Z,20.29
2023-04-20T12:40:29.838Z,20.39
2023-04-20T12:41:33.484Z,19.63
2023-04-20T12:42:36.304Z,19.67
2023-04-20T12:43:39.481Z,19.45
2023-04-20T12:44:42.120Z,19.72
2023-04-20T12:45:46.037Z,20.26
2023-04-20T12:46:49.075Z,20.80
2023-04-20T12:47:54.064Z,20.82
2023-04-20T12:48:59.195Z,21.60
2023-04-20T12:50:03.247Z,22.05
2023-04-20T12:51:06.484Z,22.50
2023-04-20T12:52:09.270Z,22.79
2023-04-20T12:53:12.267Z,22.78
2023-04-20T12:54:15.206Z,23.23
2023-04-20T12:55:19.047Z,23.27
2023-04-20T12:56:21.918Z,22.37
2023-04-20T12:57:25.486Z,21.82
2023-04-20T12:58:28.317Z,21.59
2023-04-20T12:59:31.214Z,21.33
2023-04-20T13:00:34.130Z,20.92
2023-04-20T13:01:37.235Z,20.60
2023-04-20T13:02:40.192Z,20.63
2023-04-20T13:03:43.653Z,20.28
2023-04-20T13:04:47.223Z,20.34
2023-04-20T13:05:50.164Z,19.97
2023-04-20T13:06:53.187Z,19.71
2023-04-20T13:07:56.125Z,19.57
2023-04-20T13:08:59.025Z,19.49
2023-04-20T13:10:01.961Z,19.49
2023-04-20T13:11:05.136Z,19.63
2023-04-20T13:12:08.280Z,19.23
2023-04-20T13:13:11.410Z,19.28
2023-04-20T13:14:14.207Z,19.26
2023-04-20T13:15:31.825Z,19.31
2023-04-20T13:16:41.247Z,19.39
2023-04-20T13:17:44.164Z,19.48
2023-04-20T13:18:47.102Z,19.82
2023-04-20T13:19:50.457Z,19.87
2023-04-20T13:20:53.443Z,20.14
2023-04-20T13:21:56.349Z,20.26
2023-04-20T13:23:01.579Z,20.82
2023-04-20T13:24:04.827Z,21.29
2023-04-20T13:25:07.963Z,21.32
2023-04-20T13:26:10.948Z,21.47
2023-04-20T13:27:14.464Z,21.42
2023-04-20T13:28:17.763Z,21.63
2023-04-20T13:29:20.776Z,21.99
2023-04-20T13:30:24.585Z,22.04
2023-04-20T13:31:27.601Z,22.35
2023-04-20T13:32:30.971Z,22.25
2023-04-20T13:33:34.569Z,22.11
2023-04-20T13:34:37.532Z,22.03
2023-04-20T13:35:40.459Z,22.02
2023-04-20T13:36:44.702Z,22.25
2023-04-20T13:37:50.950Z,21.98
2023-04-20T13:38:54.149Z,22.14
2023-04-20T13:39:56.948Z,22.46
2023-04-20T13:40:59.810Z,22.06
2023-04-20T13:42:03.187Z,22.24
2023-04-20T13:43:05.999Z,22.01
2023-04-20T13:44:15.965Z,22.12
2023-04-20T13:45:19.258Z,22.20
2023-04-20T13:46:22.296Z,22.17
2023-04-20T13:47:25.823Z,22.31
2023-04-20T13:48:28.697Z,22.21
2023-04-20T13:49:31.842Z,22.35
2023-04-20T13:50:34.976Z,22.43
2023-04-20T13:51:39.450Z,22.66
2023-04-20T13:52:42.424Z,22.60
2023-04-20T13:53:45.627Z,22.56
2023-04-20T13:54:48.788Z,22.32
2023-04-20T13:55:51.534Z,22.19
2023-04-20T13:56:54.380Z,22.13